Time;durP1;ratioP1;P1;durP2;ratioP2;P2;SDS_P1;SDS_P2;PMS_P1;PMS_P2;Temp;Humidity;BMP_temperature;BMP_pressure;BME280_temperature;BME280_humidity;BME280_pressure;Samples;Min_cycle;Max_cycle;Signal;HPM_P1;HPM_P2
2022/12/21 00:01:41;;;;;;;10.55;10.05;;;7.20;95.80;;;;;;5048850;28;20026;-73
2022/12/21 00:04:08;;;;;;;11.30;10.80;;;7.20;95.70;;;;;;5047166;28;20048;-81
2022/12/21 00:06:36;;;;;;;11.15;10.65;;;7.10;95.70;;;;;;5047081;28;20048;-82
2022/12/21 00:09:05;;;;;;;13.07;12.48;;;7.10;95.70;;;;;;5047125;28;20037;-81
2022/12/21 00:11:32;;;;;;;11.85;11.35;;;7.00;95.70;;;;;;5047159;28;20526;-81
2022/12/21 00:13:59;;;;;;;12.15;11.65;;;6.90;95.70;;;;;;5047048;28;20466;-81
2022/12/21 00:16:28;;;;;;;12.90;12.30;;;6.90;95.70;;;;;;5047163;28;20373;-81
2022/12/21 00:18:54;;;;;;;11.23;10.73;;;6.80;95.70;;;;;;5047165;28;20021;-81
2022/12/21 00:21:23;;;;;;;9.70;9.20;;;6.80;95.80;;;;;;5047109;28;20025;-82
2022/12/21 00:23:51;;;;;;;10.30;9.80;;;6.80;95.90;;;;;;5048129;28;20553;-82
2022/12/21 00:26:22;;;;;;;9.73;9.23;;;6.80;95.90;;;;;;5046890;28;20055;-81
2022/12/21 00:28:50;;;;;;;10.07;9.57;;;6.80;95.80;;;;;;5046648;28;20021;-81
2022/12/21 00:31:18;;;;;;;10.15;9.65;;;6.80;95.80;;;;;;5047016;28;20021;-81
2022/12/21 00:33:45;;;;;;;9.60;9.10;;;6.80;95.70;;;;;;5046883;28;20120;-81
2022/12/21 00:36:14;;;;;;;9.55;9.05;;;6.70;95.70;;;;;;5048185;28;20021;-81
2022/12/21 00:38:40;;;;;;;9.13;8.73;;;6.60;95.70;;;;;;5046667;28;20036;-81
2022/12/21 00:41:08;;;;;;;8.35;7.95;;;6.60;95.70;;;;;;5048416;28;20460;-81
2022/12/21 00:43:35;;;;;;;8.07;7.68;;;6.60;95.80;;;;;;5048173;28;20497;-81
2022/12/21 00:46:02;;;;;;;8.55;8.15;;;6.60;95.80;;;;;;5030118;28;20094;-82
2022/12/21 00:48:29;;;;;;;8.40;8.00;;;6.70;95.90;;;;;;5046641;28;20044;-82
2022/12/21 00:51:06;;;;;;;7.50;7.10;;;6.70;95.90;;;;;;5046801;28;20029;-82
2022/12/21 00:53:32;;;;;;;7.70;7.30;;;6.70;95.90;;;;;;5048499;28;20436;-81
2022/12/21 00:55:59;;;;;;;7.50;7.10;;;6.80;95.90;;;;;;5032033;28;20083;-81
2022/12/21 00:58:28;;;;;;;7.70;7.30;;;6.80;95.80;;;;;;5055852;28;20037;-81
2022/12/21 01:00:55;;;;;;;8.40;8.00;;;6.80;95.80;;;;;;5047401;28;20261;-81
2022/12/21 01:03:22;;;;;;;7.70;7.30;;;6.90;95.80;;;;;;5048034;28;20025;-81
2022/12/21 01:05:49;;;;;;;7.60;7.20;;;6.90;95.80;;;;;;5048164;28;20151;-82
2022/12/21 01:08:16;;;;;;;7.03;6.63;;;6.90;95.80;;;;;;5029876;28;20033;-81
2022/12/21 01:10:43;;;;;;;7.82;7.43;;;6.90;95.70;;;;;;5046377;28;20052;-81
2022/12/21 01:13:10;;;;;;;7.45;7.05;;;6.90;95.70;;;;;;5046282;28;20025;-82
2022/12/21 01:15:55;;;;;;;7.63;7.22;;;6.80;95.70;;;;;;5046235;28;20029;-82
2022/12/21 01:18:21;;;;;;;7.80;7.40;;;6.80;95.70;;;;;;5046403;28;20160;-82
2022/12/21 01:20:50;;;;;;;7.45;7.05;;;6.80;95.70;;;;;;5046142;28;20032;-82
2022/12/21 01:23:17;;;;;;;6.70;6.30;;;6.70;95.70;;;;;;5046520;28;20041;-82
2022/12/21 01:25:44;;;;;;;7.35;6.95;;;6.60;95.70;;;;;;5045947;28;20040;-81
2022/12/21 01:28:10;;;;;;;7.38;6.97;;;6.60;95.70;;;;;;5047529;28;20044;-82
2022/12/21 01:30:38;;;;;;;7.65;7.25;;;6.60;95.80;;;;;;5029811;28;20029;-81
2022/12/21 01:33:18;;;;;;;7.10;6.70;;;6.60;95.70;;;;;;5029935;28;20048;-82
2022/12/21 01:35:44;;;;;;;7.80;7.40;;;6.60;95.70;;;;;;5047711;28;20064;-81
2022/12/21 01:38:10;;;;;;;;;;;6.50;95.70;;;;;;5046590;28;20337;-82
2022/12/21 01:40:37;;;;;;;7.03;6.63;;;6.50;95.80;;;;;;5047579;28;19909;-82
2022/12/21 01:43:34;;;;;;;6.93;6.53;;;6.50;95.80;;;;;;5029507;28;20057;-81
2022/12/21 01:46:00;;;;;;;7.65;7.25;;;6.50;95.80;;;;;;5047011;28;20040;-81
2022/12/21 01:48:26;;;;;;;7.32;6.93;;;6.50;95.70;;;;;;5012849;28;20032;-82
2022/12/21 01:50:59;;;;;;;7.25;6.85;;;6.40;95.70;;;;;;5045929;28;20052;-81
2022/12/21 01:53:38;;;;;;;7.07;6.68;;;6.40;95.70;;;;;;5046125;28;20029;-81
2022/12/21 01:56:08;;;;;;;7.20;6.80;;;6.40;95.70;;;;;;5045999;28;20040;-81
2022/12/21 01:58:35;;;;;;;8.05;7.45;;;6.40;95.70;;;;;;5047269;28;20094;-81
2022/12/21 02:01:02;;;;;;;7.35;6.95;;;6.40;95.80;;;;;;5045974;28;20025;-81
2022/12/21 02:03:35;;;;;;;7.30;6.90;;;6.40;95.80;;;;;;5029317;28;20071;-81
2022/12/21 02:06:27;;;;;;;7.93;7.53;;;6.30;95.80;;;;;;5045741;28;20025;-81
2022/12/21 02:08:54;;;;;;;7.82;7.43;;;6.30;96.00;;;;;;5046060;28;20029;-81
2022/12/21 02:11:20;;;;;;;8.13;7.72;;;6.30;95.70;;;;;;5045656;28;20107;-81
2022/12/21 02:13:46;;;;;;;8.65;8.25;;;6.30;95.70;;;;;;5045535;28;20041;-81
2022/12/21 02:16:22;;;;;;;8.32;7.93;;;6.20;95.70;;;;;;5012418;28;20029;-82
2022/12/21 02:19:06;;;;;;;8.43;8.02;;;6.20;95.70;;;;;;5046924;28;20033;-82
2022/12/21 02:21:47;;;;;;;9.02;8.63;;;6.20;95.70;;;;;;5048670;28;20031;-79
2022/12/21 02:24:22;;;;;;;9.63;9.13;;;6.10;95.60;;;;;;5049123;28;20726;-81
2022/12/21 02:27:09;;;;;;;8.90;8.50;;;6.10;95.60;;;;;;5049195;28;20039;-81
2022/12/21 02:30:03;;;;;;;10.00;9.50;;;6.00;95.70;;;;;;5053571;28;20381;-81
2022/12/21 02:32:38;;;;;;;8.80;8.40;;;6.00;95.70;;;;;;5050895;28;20100;-81
2022/12/21 02:35:42;;;;;;;9.23;8.82;;;6.00;95.70;;;;;;5049208;28;20029;-81
2022/12/21 02:38:42;;;;;;;10.02;9.52;;;6.00;95.70;;;;;;5011279;28;20088;-81
2022/12/21 02:41:28;;;;;;;9.75;9.25;;;5.90;95.70;;;;;;5050814;28;20020;-81
2022/12/21 02:44:15;;;;;;;8.60;8.20;;;5.90;95.70;;;;;;5048980;28;20029;-81
2022/12/21 02:47:07;;;;;;;9.75;9.25;;;5.90;95.70;;;;;;5049015;28;20041;-81
2022/12/21 02:49:45;;;;;;;9.18;8.77;;;5.90;95.60;;;;;;5050187;28;20358;-81
2022/12/21 02:52:21;;;;;;;8.90;8.50;;;5.80;95.60;;;;;;5049524;28;20473;-81
2022/12/21 02:54:47;;;;;;;8.98;8.57;;;5.80;95.70;;;;;;5050142;28;20025;-80
2022/12/21 02:57:12;;;;;;;7.82;7.43;;;5.80;95.70;;;;;;5048721;28;20339;-81
2022/12/21 02:59:47;;;;;;;8.43;8.02;;;5.80;95.70;;;;;;5048901;28;20033;-81
2022/12/21 03:02:34;;;;;;;6.70;6.30;;;5.80;95.70;;;;;;5048703;28;20028;-81
2022/12/21 03:05:12;;;;;;;7.05;6.65;;;5.90;95.80;;;;;;5050177;28;20425;-81
2022/12/21 03:08:08;;;;;;;7.20;6.80;;;5.90;95.80;;;;;;5048490;28;20116;-81
2022/12/21 03:10:51;;;;;;;6.60;6.20;;;5.90;95.80;;;;;;5049906;28;20490;-81
2022/12/21 03:13:23;;;;;;;7.05;6.65;;;5.90;95.70;;;;;;5049895;28;20469;-81
2022/12/21 03:16:18;;;;;;;6.90;6.50;;;5.90;95.70;;;;;;5048270;28;20033;-81
2022/12/21 03:19:05;;;;;;;6.13;5.82;;;5.90;95.70;;;;;;5048265;28;20501;-81
2022/12/21 03:21:46;;;;;;;5.90;5.60;;;5.90;95.70;;;;;;5049502;28;20099;-81
2022/12/21 03:24:23;;;;;;;6.10;5.80;;;5.90;95.70;;;;;;5049619;28;20045;-81
2022/12/21 03:27:07;;;;;;;;;;;5.90;95.70;;;;;;5049967;28;20071;-81
2022/12/21 03:29:41;;;;;;;5.95;5.65;;;5.90;95.70;;;;;;5048204;28;20003;-81
2022/12/21 03:32:16;;;;;;;5.88;5.57;;;5.90;95.70;;;;;;5047912;28;20481;-81
2022/12/21 03:34:49;;;;;;;6.35;6.00;;;5.90;95.70;;;;;;5048139;28;20029;-81
2022/12/21 03:37:20;;;;;;;6.32;6.00;;;5.90;95.70;;;;;;5047983;28;20035;-81
2022/12/21 03:39:53;;;;;;;7.30;6.90;;;5.90;95.70;;;;;;5047962;28;20032;-81
2022/12/21 03:42:26;;;;;;;6.68;6.28;;;5.80;95.70;;;;;;5047909;28;20025;-81
2022/12/21 03:44:58;;;;;;;6.30;5.97;;;5.90;95.70;;;;;;5047796;28;20025;-80
2022/12/21 03:47:47;;;;;;;6.40;6.00;;;5.90;95.70;;;;;;5048989;28;20067;-81
2022/12/21 03:50:18;;;;;;;7.28;6.88;;;5.90;95.70;;;;;;5047718;28;20061;-81
2022/12/21 03:53:08;;;;;;;7.13;6.72;;;5.80;95.60;;;;;;5048942;28;20060;-81
2022/12/21 03:55:38;;;;;;;7.50;7.10;;;5.80;95.60;;;;;;5046773;28;20132;-81
2022/12/21 03:58:05;;;;;;;8.25;7.85;;;5.80;95.60;;;;;;5048633;28;20493;-81
2022/12/21 04:00:42;;;;;;;7.75;7.35;;;5.80;95.60;;;;;;5037245;28;20124;-81
2022/12/21 04:03:24;;;;;;;9.25;8.82;;;5.80;95.60;;;;;;5052369;28;20021;-81
2022/12/21 04:05:52;;;;;;;9.38;8.93;;;5.70;95.60;;;;;;5049205;28;20036;-81
2022/12/21 04:08:18;;;;;;;8.82;8.43;;;5.70;95.60;;;;;;5048720;28;20033;-81
2022/12/21 04:10:47;;;;;;;9.93;9.43;;;5.70;95.60;;;;;;5048659;28;20028;-81
2022/12/21 04:13:14;;;;;;;9.77;9.27;;;5.70;95.60;;;;;;5047541;28;20452;-81
2022/12/21 04:21:08;;;;;;;9.00;8.60;;;5.70;95.70;;;;;;5047655;28;20036;-81
2022/12/21 04:29:02;;;;;;;9.50;9.00;;;5.70;95.70;;;;;;5048705;28;20052;-81
2022/12/21 04:31:28;;;;;;;8.82;8.43;;;5.70;95.70;;;;;;5048543;28;20029;-81
2022/12/21 04:33:54;;;;;;;10.43;9.93;;;5.70;95.70;;;;;;5013983;28;20061;-81
2022/12/21 04:39:04;;;;;;;8.60;8.20;;;5.70;95.70;;;;;;5047427;28;20044;-81
2022/12/21 04:41:30;;;;;;;9.25;8.85;;;5.70;95.70;;;;;;5048048;28;20029;-81
2022/12/21 04:43:55;;;;;;;9.73;9.23;;;5.70;95.70;;;;;;5046444;28;20058;-81
2022/12/21 04:46:21;;;;;;;9.10;8.70;;;5.70;95.70;;;;;;5030143;28;20029;-81
2022/12/21 04:48:47;;;;;;;9.00;8.60;;;5.70;95.70;;;;;;5046951;28;20044;-81
2022/12/21 04:51:15;;;;;;;9.45;8.95;;;5.80;95.80;;;;;;5047988;28;20032;-81
2022/12/21 04:53:41;;;;;;;10.10;9.60;;;5.80;95.70;;;;;;5046510;28;20029;-80
2022/12/21 04:56:08;;;;;;;9.98;9.48;;;5.80;95.70;;;;;;5047991;28;20041;-81
2022/12/21 04:58:34;;;;;;;11.25;10.75;;;5.80;95.70;;;;;;5046481;28;20474;-81
2022/12/21 05:01:02;;;;;;;10.20;9.70;;;5.80;95.70;;;;;;5047807;28;20021;-81
2022/12/21 05:03:28;;;;;;;11.18;10.68;;;5.80;95.70;;;;;;5046687;28;20469;-80
2022/12/21 05:05:54;;;;;;;10.38;9.88;;;5.80;95.70;;;;;;5029799;28;20037;-81
2022/12/21 05:08:19;;;;;;;10.20;9.70;;;5.80;95.70;;;;;;5013482;28;20040;-81
2022/12/21 05:10:45;;;;;;;11.63;11.13;;;5.80;95.70;;;;;;5046478;28;20393;-81
2022/12/21 05:13:11;;;;;;;10.77;10.27;;;5.80;95.70;;;;;;5047936;28;20025;-80
2022/12/21 05:15:40;;;;;;;10.30;9.80;;;5.80;95.70;;;;;;5029889;28;20029;-81
2022/12/21 05:18:05;;;;;;;10.30;9.80;;;5.80;95.70;;;;;;5029788;28;20025;-79
2022/12/21 05:20:31;;;;;;;10.45;9.95;;;5.80;95.70;;;;;;5046409;28;20496;-81
2022/12/21 05:22:57;;;;;;;10.00;9.50;;;5.80;95.70;;;;;;5029464;28;20044;-76
2022/12/21 05:25:23;;;;;;;10.15;9.65;;;5.80;95.70;;;;;;5029769;28;20040;-81
2022/12/21 05:27:48;;;;;;;9.30;8.88;;;5.80;95.80;;;;;;5029708;28;20029;-81
2022/12/21 05:30:14;;;;;;;9.77;9.27;;;5.80;95.80;;;;;;5029701;28;20044;-81
2022/12/21 05:32:40;;;;;;;9.10;8.70;;;5.80;95.70;;;;;;5036378;28;20078;-81
2022/12/21 05:35:06;;;;;;;8.77;8.38;;;5.80;95.90;;;;;;5051804;28;20033;-81
2022/12/21 05:37:31;;;;;;;9.00;8.60;;;5.80;95.70;;;;;;5047518;28;20036;-81
2022/12/21 05:39:57;;;;;;;9.20;8.80;;;5.90;95.80;;;;;;5013299;28;20025;-81
2022/12/21 05:42:23;;;;;;;9.05;8.65;;;5.90;95.70;;;;;;5030019;28;20036;-81
2022/12/21 05:44:48;;;;;;;9.38;8.93;;;5.90;95.80;;;;;;5013255;28;20150;-81
2022/12/21 05:47:14;;;;;;;8.75;8.35;;;5.90;95.80;;;;;;5046165;28;20037;-80
2022/12/21 05:49:40;;;;;;;10.30;9.80;;;5.90;95.70;;;;;;5013097;28;20053;-81
2022/12/21 05:52:05;;;;;;;9.23;8.82;;;5.90;95.80;;;;;;5029571;28;20576;-81
2022/12/21 05:54:31;;;;;;;9.05;8.65;;;5.90;95.70;;;;;;5045910;28;20029;-81
2022/12/21 05:56:57;;;;;;;9.45;9.00;;;5.90;95.70;;;;;;5033179;28;20067;-81
2022/12/21 05:59:22;;;;;;;10.07;9.57;;;5.90;95.80;;;;;;5033468;28;20037;-81
2022/12/21 06:01:48;;;;;;;9.80;9.30;;;6.00;95.80;;;;;;5016970;28;20025;-81
2022/12/21 06:04:14;;;;;;;10.15;9.65;;;6.00;95.70;;;;;;5049962;28;20041;-81
2022/12/21 06:06:40;;;;;;;9.25;8.82;;;5.90;95.70;;;;;;5033184;28;20028;-81
2022/12/21 06:09:05;;;;;;;9.75;9.25;;;5.90;95.70;;;;;;5051015;28;20086;-81
2022/12/21 06:11:32;;;;;;;9.90;9.40;;;5.90;95.70;;;;;;5033098;28;20036;-81
2022/12/21 06:13:58;;;;;;;9.68;9.18;;;5.90;95.70;;;;;;5049429;28;20044;-81
2022/12/21 06:16:26;;;;;;;10.07;9.57;;;5.90;95.70;;;;;;5050852;28;20406;-82
2022/12/21 06:18:52;;;;;;;9.35;8.90;;;5.90;95.70;;;;;;5050696;28;20025;-82
2022/12/21 06:21:19;;;;;;;9.45;8.98;;;5.80;95.70;;;;;;5050752;28;20025;-81
2022/12/21 06:23:46;;;;;;;10.00;9.50;;;5.80;95.70;;;;;;5050450;28;20045;-82
2022/12/21 06:26:14;;;;;;;10.05;9.55;;;5.80;95.70;;;;;;5050816;28;20050;-82
2022/12/21 06:28:40;;;;;;;9.20;8.80;;;5.80;95.70;;;;;;5050748;28;20033;-82
2022/12/21 06:31:11;;;;;;;;;;;5.80;95.70;;;;;;5049661;28;20085;-81
2022/12/21 06:33:38;;;;;;;10.10;9.60;;;5.80;95.70;;;;;;5049366;28;19905;-81
2022/12/21 06:36:04;;;;;;;9.18;8.75;;;5.80;95.70;;;;;;5049007;28;20064;-81
2022/12/21 06:38:31;;;;;;;10.57;10.07;;;5.80;95.70;;;;;;5049067;28;20040;-81
2022/12/21 06:41:03;;;;;;;10.25;9.75;;;5.80;95.70;;;;;;5048973;28;20485;-81
2022/12/21 06:43:32;;;;;;;9.80;9.30;;;5.80;95.70;;;;;;5050274;28;20527;-82
2022/12/21 06:46:06;;;;;;;9.65;9.15;;;5.80;95.70;;;;;;5048725;28;20046;-81
2022/12/21 06:48:33;;;;;;;9.55;9.05;;;5.80;95.70;;;;;;5048475;28;20547;-81
2022/12/21 06:51:01;;;;;;;9.00;8.60;;;5.90;95.70;;;;;;5049989;28;20029;-81
2022/12/21 06:53:30;;;;;;;9.85;9.35;;;5.90;95.70;;;;;;5048874;28;20052;-82
2022/12/21 06:56:01;;;;;;;9.82;9.32;;;5.80;95.70;;;;;;5048547;28;20029;-81
2022/12/21 06:58:27;;;;;;;8.98;8.57;;;5.90;95.70;;;;;;5048512;28;20484;-81
2022/12/21 07:00:53;;;;;;;9.38;8.90;;;5.90;95.70;;;;;;5049848;28;20096;-81
2022/12/21 07:03:20;;;;;;;9.15;8.75;;;5.90;95.70;;;;;;5048619;28;20025;-81
2022/12/21 07:05:45;;;;;;;;;;;5.90;95.80;;;;;;5042532;28;20040;-81
2022/12/21 07:08:11;;;;;;;9.13;8.73;;;6.00;95.80;;;;;;5048885;28;20007;-81
2022/12/21 07:10:40;;;;;;;9.55;9.05;;;6.00;95.80;;;;;;5048665;28;20037;-82
2022/12/21 07:13:05;;;;;;;8.50;8.10;;;6.00;95.80;;;;;;5015762;28;20060;-82
2022/12/21 07:15:36;;;;;;;9.27;8.85;;;6.00;95.80;;;;;;5048128;28;20056;-81
2022/12/21 07:18:02;;;;;;;8.85;8.45;;;6.10;95.80;;;;;;5048666;28;20029;-81
2022/12/21 07:20:27;;;;;;;8.85;8.45;;;6.10;95.80;;;;;;5031859;28;20491;-81
2022/12/21 07:22:53;;;;;;;9.25;8.82;;;6.10;96.00;;;;;;5031652;28;20072;-81
2022/12/21 07:25:19;;;;;;;9.68;9.18;;;6.20;95.80;;;;;;5031852;28;20060;-81
2022/12/21 07:27:45;;;;;;;8.73;8.32;;;6.20;95.80;;;;;;5049691;28;20082;-82
2022/12/21 07:30:11;;;;;;;9.13;8.73;;;6.20;95.80;;;;;;5031881;28;20383;-80
2022/12/21 07:32:37;;;;;;;;;;;6.20;95.80;;;;;;5016384;28;20095;-79
2022/12/21 07:35:04;;;;;;;7.88;7.47;;;6.30;95.80;;;;;;5048966;28;19916;-80
2022/12/21 07:37:29;;;;;;;8.68;8.27;;;6.30;95.80;;;;;;5048734;28;20032;-81
2022/12/21 07:39:55;;;;;;;7.85;7.45;;;6.30;95.80;;;;;;5015718;28;20029;-81
2022/12/21 07:42:21;;;;;;;7.75;7.35;;;6.40;95.80;;;;;;5032279;28;20060;-80
2022/12/21 07:44:46;;;;;;;8.32;7.93;;;6.40;95.80;;;;;;5049100;28;20036;-80
2022/12/21 07:47:12;;;;;;;7.97;7.57;;;6.40;95.80;;;;;;5031561;28;20059;-80
2022/12/21 07:49:38;;;;;;;7.72;7.32;;;6.50;95.80;;;;;;5031989;28;20033;-80
2022/12/21 07:52:04;;;;;;;8.65;8.25;;;6.50;95.80;;;;;;5031564;28;20072;-80
2022/12/21 07:54:29;;;;;;;7.60;7.20;;;6.50;95.80;;;;;;5048601;28;20173;-80
2022/12/21 07:56:55;;;;;;;7.80;7.40;;;6.50;95.70;;;;;;5048095;28;20040;-81
2022/12/21 07:59:21;;;;;;;8.10;7.70;;;6.50;95.70;;;;;;5031235;28;20027;-80
2022/12/21 08:01:47;;;;;;;7.80;7.40;;;6.60;95.80;;;;;;5031098;28;20033;-80
2022/12/21 08:04:12;;;;;;;8.00;7.60;;;6.60;95.80;;;;;;5048472;28;20040;-81
2022/12/21 08:06:38;;;;;;;8.02;7.63;;;6.60;96.00;;;;;;5031349;28;20029;-80
2022/12/21 08:09:04;;;;;;;8.27;7.88;;;6.60;95.80;;;;;;5048513;28;20029;-80
2022/12/21 08:11:29;;;;;;;7.40;7.00;;;6.60;95.70;;;;;;5048990;28;20505;-80
2022/12/21 08:13:56;;;;;;;7.70;7.30;;;6.60;95.70;;;;;;5047440;28;20132;-80
2022/12/21 08:16:22;;;;;;;8.10;7.70;;;6.60;95.80;;;;;;5014895;28;20026;-80
2022/12/21 08:18:48;;;;;;;7.63;7.22;;;6.60;95.80;;;;;;5046769;28;20108;-80
2022/12/21 08:21:15;;;;;;;7.70;7.30;;;6.60;95.80;;;;;;5047844;28;20036;-79
2022/12/21 08:23:41;;;;;;;7.32;6.93;;;6.60;95.80;;;;;;5031328;28;20070;-80
2022/12/21 08:26:10;;;;;;;8.20;7.80;;;6.60;95.80;;;;;;5048414;28;20029;-80
2022/12/21 08:28:36;;;;;;;7.47;7.07;;;6.60;95.80;;;;;;5048789;28;20106;-79
2022/12/21 08:31:07;;;;;;;6.75;6.35;;;6.70;95.80;;;;;;5047435;28;20060;-82
2022/12/21 08:33:32;;;;;;;6.90;6.50;;;6.70;95.80;;;;;;5047244;28;20040;-81
2022/12/21 08:35:58;;;;;;;7.00;6.60;;;6.70;95.90;;;;;;5048512;28;20436;-81
2022/12/21 08:38:24;;;;;;;7.30;6.90;;;6.70;95.80;;;;;;5034145;28;20021;-81
2022/12/21 08:40:51;;;;;;;7.60;7.20;;;6.70;95.80;;;;;;5047868;28;20400;-81
2022/12/21 08:43:17;;;;;;;7.95;7.55;;;6.70;95.80;;;;;;5031451;28;20104;-81
2022/12/21 08:45:44;;;;;;;6.80;6.40;;;6.80;95.90;;;;;;5032738;28;20061;-80
2022/12/21 08:48:10;;;;;;;6.82;6.43;;;6.80;95.90;;;;;;5031409;28;20041;-81
2022/12/21 08:50:36;;;;;;;;;;;6.90;95.90;;;;;;5048022;28;20033;-81
2022/12/21 08:53:02;;;;;;;6.90;6.50;;;6.90;95.90;;;;;;5049042;28;19980;-80
2022/12/21 08:55:30;;;;;;;7.70;7.30;;;6.90;95.80;;;;;;5047120;28;20029;-81
2022/12/21 08:57:56;;;;;;;7.85;7.45;;;7.00;95.80;;;;;;5030454;28;20136;-81
2022/12/21 09:00:23;;;;;;;7.47;7.07;;;7.00;95.80;;;;;;5048416;28;20442;-81
2022/12/21 09:02:49;;;;;;;7.38;6.97;;;6.90;95.70;;;;;;5048633;28;20484;-81
2022/12/21 09:05:15;;;;;;;7.70;7.30;;;6.90;95.70;;;;;;5014870;28;20059;-80
2022/12/21 09:07:41;;;;;;;7.55;7.15;;;6.80;95.70;;;;;;5033531;28;20030;-81
2022/12/21 09:10:07;;;;;;;7.50;7.10;;;6.80;95.70;;;;;;5039714;28;20029;-81
2022/12/21 09:12:33;;;;;;;;;;;6.80;95.80;;;;;;5022721;28;20034;-81
2022/12/21 09:14:58;;;;;;;6.38;6.00;;;6.80;95.80;;;;;;5018942;28;19923;-81
2022/12/21 09:17:24;;;;;;;7.07;6.68;;;6.80;95.80;;;;;;5020781;28;20029;-80
2022/12/21 09:19:50;;;;;;;6.30;5.97;;;6.80;95.80;;;;;;5016383;28;20478;-81
2022/12/21 09:22:16;;;;;;;6.65;6.25;;;6.80;95.90;;;;;;5028807;28;20393;-81
2022/12/21 09:24:42;;;;;;;6.65;6.25;;;6.90;96.00;;;;;;5033646;28;20033;-81
2022/12/21 09:27:07;;;;;;;5.95;5.65;;;6.90;95.90;;;;;;5037351;28;20473;-80
2022/12/21 09:29:33;;;;;;;5.93;5.63;;;7.00;95.80;;;;;;5021682;28;20032;-81
2022/12/21 09:31:59;;;;;;;5.90;5.60;;;7.00;95.80;;;;;;5030227;28;20037;-81
2022/12/21 09:34:24;;;;;;;5.93;5.63;;;7.00;95.80;;;;;;5027284;28;20036;-80
2022/12/21 09:36:50;;;;;;;5.32;5.03;;;7.00;95.80;;;;;;5008175;28;20033;-81
2022/12/21 09:39:16;;;;;;;5.22;4.93;;;7.10;95.90;;;;;;5025287;28;20028;-80
2022/12/21 09:42:22;;;;;;;5.15;4.85;;;7.20;96.00;;;;;;5007267;28;20478;-81
2022/12/21 09:44:56;;;;;;;4.88;4.57;;;7.40;96.00;;;;;;5051901;28;20048;-80
2022/12/21 09:47:37;;;;;;;4.93;4.63;;;7.50;95.90;;;;;;5043287;28;20025;-81
2022/12/21 09:50:11;;;;;;;4.53;4.22;;;7.60;95.90;;;;;;5041788;28;20025;-81
2022/12/21 09:52:42;;;;;;;4.40;4.10;;;7.70;95.90;;;;;;5040401;28;20029;-81
2022/12/21 09:55:16;;;;;;;3.95;3.65;;;7.80;96.00;;;;;;5039794;28;20017;-82
2022/12/21 09:57:42;;;;;;;3.78;3.47;;;8.00;95.90;;;;;;5050219;28;20017;-81
2022/12/21 10:00:19;;;;;;;4.10;3.80;;;8.00;95.70;;;;;;5051194;28;20017;-81
2022/12/21 10:03:35;;;;;;;3.53;3.22;;;7.90;95.60;;;;;;5034064;28;20025;-81
2022/12/21 10:06:42;;;;;;;3.72;3.42;;;7.90;95.90;;;;;;5027377;28;20032;-81
2022/12/21 10:09:19;;;;;;;3.45;3.15;;;7.90;95.90;;;;;;5036057;28;20022;-81
2022/12/21 10:11:47;;;;;;;;;;;8.10;96.30;;;;;;5035591;28;20095;-80
2022/12/21 10:14:16;;;;;;;2.10;1.95;;;8.50;96.60;;;;;;5043890;28;19924;-84
2022/12/21 10:17:00;;;;;;;1.70;1.60;;;8.90;96.70;;;;;;5051753;28;20029;-83
2022/12/21 10:19:46;;;;;;;1.70;1.60;;;9.40;96.70;;;;;;5033065;28;20021;-84
2022/12/21 10:22:28;;;;;;;1.52;1.42;;;9.70;96.40;;;;;;5031754;28;20021;-83
2022/12/21 10:25:01;;;;;;;1.40;1.30;;;10.00;96.40;;;;;;5034251;28;20436;-83
2022/12/21 10:27:45;;;;;;;0.90;0.90;;;10.30;96.40;;;;;;5040543;28;20035;-83
2022/12/21 10:30:16;;;;;;;0.60;0.60;;;10.60;96.50;;;;;;5053842;28;20028;-83
2022/12/21 10:32:47;;;;;;;0.40;0.40;;;10.90;96.50;;;;;;5058149;28;20029;-82
2022/12/21 10:35:32;;;;;;;0.30;0.30;;;11.20;96.50;;;;;;5057475;28;20033;-83
2022/12/21 10:37:59;;;;;;;0.10;0.10;;;11.40;96.50;;;;;;5056568;28;20025;-80
2022/12/21 10:40:29;;;;;;;0.10;0.10;;;11.70;96.50;;;;;;5036882;28;20022;-81
2022/12/21 10:42:55;;;;;;;0.10;0.10;;;11.90;96.40;;;;;;5051007;28;20037;-83
2022/12/21 10:45:23;;;;;;;0.10;0.10;;;12.00;96.40;;;;;;5017814;28;20040;-83
2022/12/21 10:47:49;;;;;;;0.10;0.10;;;12.20;96.40;;;;;;5043387;28;20029;-81
2022/12/21 10:50:16;;;;;;;0.10;0.10;;;12.30;96.30;;;;;;5047732;28;20617;-73
2022/12/21 10:52:54;;;;;;;0.00;0.00;;;12.30;96.30;;;;;;5042278;28;20028;-81
2022/12/21 10:55:20;;;;;;;0.00;0.00;;;12.40;96.40;;;;;;5033111;28;20461;-81
2022/12/21 10:57:50;;;;;;;0.10;0.10;;;12.60;96.40;;;;;;5031810;28;20053;-79
2022/12/21 11:00:38;;;;;;;0.00;0.00;;;12.70;96.60;;;;;;5031767;28;20029;-79
2022/12/21 11:03:23;;;;;;;0.32;0.32;;;12.80;96.50;;;;;;5029661;28;20033;-78
2022/12/21 11:05:49;;;;;;;0.13;0.13;;;12.90;96.40;;;;;;5030781;28;20032;-82
2022/12/21 11:08:14;;;;;;;0.00;0.00;;;12.90;96.30;;;;;;5031511;28;20641;-81
2022/12/21 11:10:49;;;;;;;0.00;0.00;;;12.90;96.40;;;;;;5031899;28;20385;-78
2022/12/21 11:13:16;;;;;;;0.00;0.00;;;13.00;96.40;;;;;;5031899;28;20030;-76
2022/12/21 11:16:05;;;;;;;0.00;0.00;;;12.90;96.30;;;;;;5031487;28;20073;-80
2022/12/21 11:18:47;;;;;;;0.00;0.00;;;13.00;96.40;;;;;;5030275;28;20425;-79
2022/12/21 11:21:21;;;;;;;0.00;0.00;;;13.00;96.50;;;;;;5031350;28;20025;-81
2022/12/21 11:24:35;;;;;;;0.57;0.15;;;13.10;96.60;;;;;;5029778;28;20509;-79
2022/12/21 11:27:14;;;;;;;0.00;0.00;;;13.30;96.60;;;;;;4998833;28;20030;-78
2022/12/21 11:30:09;;;;;;;0.10;0.10;;;13.30;96.50;;;;;;5031410;28;20044;-82
2022/12/21 11:32:43;;;;;;;0.00;0.00;;;13.30;96.50;;;;;;5018553;28;20451;-80
2022/12/21 11:35:30;;;;;;;0.00;0.00;;;13.40;96.60;;;;;;5031844;28;20026;-79
2022/12/21 11:38:03;;;;;;;0.00;0.00;;;13.50;96.60;;;;;;5035384;28;20363;-79
2022/12/21 11:40:29;;;;;;;0.00;0.00;;;13.60;96.50;;;;;;5033807;28;20025;-76
2022/12/21 11:43:02;;;;;;;0.00;0.00;;;13.50;96.40;;;;;;5032500;28;20091;-76
2022/12/21 11:45:46;;;;;;;0.00;0.00;;;13.50;96.60;;;;;;5032261;28;20052;-78
2022/12/21 11:48:37;;;;;;;0.00;0.00;;;13.50;96.60;;;;;;5028962;28;20029;-78
2022/12/21 11:51:14;;;;;;;0.00;0.00;;;13.50;96.50;;;;;;5028948;28;20025;-76
2022/12/21 11:53:54;;;;;;;0.00;0.00;;;13.50;96.60;;;;;;5030481;28;20032;-76
2022/12/21 11:56:29;;;;;;;0.00;0.00;;;13.60;96.70;;;;;;5030947;28;20079;-77
2022/12/21 11:59:13;;;;;;;0.00;0.00;;;13.60;96.60;;;;;;5029691;28;20018;-78
2022/12/21 12:01:59;;;;;;;0.00;0.00;;;13.70;96.70;;;;;;5031031;28;20108;-78
2022/12/21 12:05:04;;;;;;;0.00;0.00;;;13.60;96.50;;;;;;5027664;28;20030;-77
2022/12/21 12:07:38;;;;;;;0.00;0.00;;;13.50;96.60;;;;;;5043946;28;20025;-80
2022/12/21 12:10:28;;;;;;;0.00;0.00;;;13.50;96.60;;;;;;5029887;28;20495;-79
2022/12/21 12:13:09;;;;;;;0.00;0.00;;;13.50;96.70;;;;;;5046735;28;20066;-81
2022/12/21 12:15:59;;;;;;;0.00;0.00;;;13.50;96.70;;;;;;5041488;28;20032;-79
2022/12/21 12:18:37;;;;;;;0.00;0.00;;;13.50;96.60;;;;;;5051860;28;20088;-78
2022/12/21 12:21:30;;;;;;;0.00;0.00;;;13.50;96.70;;;;;;5046228;28;20072;-80
2022/12/21 12:24:02;;;;;;;0.00;0.00;;;13.40;96.60;;;;;;5035059;28;20046;-77
2022/12/21 12:26:36;;;;;;;0.00;0.00;;;13.40;96.60;;;;;;5035963;28;20029;-79
2022/12/21 12:29:45;;;;;;;0.00;0.00;;;13.30;96.50;;;;;;5039655;28;20346;-82
2022/12/21 12:32:33;;;;;;;0.00;0.00;;;13.00;96.20;;;;;;5042345;28;20033;-75
2022/12/21 12:35:19;;;;;;;0.00;0.00;;;12.60;95.80;;;;;;5048723;28;20036;-77
2022/12/21 12:37:53;;;;;;;0.00;0.00;;;12.10;95.70;;;;;;5038051;28;20096;-75
2022/12/21 12:40:54;;;;;;;0.00;0.00;;;11.70;95.70;;;;;;5048143;28;20013;-81
2022/12/21 12:43:48;;;;;;;0.00;0.00;;;11.40;95.80;;;;;;5047659;28;20029;-76
2022/12/21 12:46:35;;;;;;;0.00;0.00;;;11.10;95.90;;;;;;5038219;28;20371;-75
2022/12/21 12:49:14;;;;;;;0.00;0.00;;;11.00;96.00;;;;;;5029930;28;20033;-81
2022/12/21 12:51:53;;;;;;;0.00;0.00;;;10.80;96.00;;;;;;5029641;28;20052;-78
2022/12/21 12:54:26;;;;;;;0.00;0.00;;;10.70;96.10;;;;;;5035376;28;20024;-81
2022/12/21 12:57:29;;;;;;;0.00;0.00;;;10.50;96.00;;;;;;5043033;28;20025;-80
2022/12/21 13:00:11;;;;;;;0.00;0.00;;;10.50;96.10;;;;;;5029900;28;20051;-81
2022/12/21 13:02:47;;;;;;;0.00;0.00;;;10.40;96.00;;;;;;5035233;28;20025;-82
2022/12/21 13:05:15;;;;;;;0.00;0.00;;;10.30;96.10;;;;;;5036763;28;20084;-72
2022/12/21 13:07:53;;;;;;;0.00;0.00;;;10.30;96.10;;;;;;5040900;28;20033;-81
2022/12/21 13:10:40;;;;;;;0.20;0.10;;;10.30;96.10;;;;;;5032178;28;20029;-80
2022/12/21 13:13:24;;;;;;;0.00;0.00;;;10.30;96.10;;;;;;5030424;28;20026;-80
2022/12/21 13:16:07;;;;;;;0.00;0.00;;;10.20;96.00;;;;;;5045458;28;20102;-80
2022/12/21 13:18:49;;;;;;;0.00;0.00;;;10.20;96.00;;;;;;5045008;28;20018;-80
2022/12/21 13:21:17;;;;;;;0.00;0.00;;;10.20;96.00;;;;;;5030257;28;20466;-79
2022/12/21 13:23:57;;;;;;;0.00;0.00;;;10.20;96.00;;;;;;5045398;28;20057;-78
2022/12/21 13:26:44;;;;;;;0.00;0.00;;;10.20;96.00;;;;;;5050637;28;20478;-81
2022/12/21 13:29:19;;;;;;;0.00;0.00;;;10.20;96.00;;;;;;5041302;28;20049;-80
2022/12/21 13:31:51;;;;;;;0.00;0.00;;;10.20;96.00;;;;;;5026863;28;20026;-82
2022/12/21 13:34:36;;;;;;;0.00;0.00;;;10.20;96.00;;;;;;5028287;28;20032;-82
2022/12/21 13:37:09;;;;;;;0.00;0.00;;;10.20;96.10;;;;;;5030232;28;20453;-81